Time;durP1;ratioP1;P1;durP2;ratioP2;P2;SDS_P1;SDS_P2;PMS_P1;PMS_P2;Temp;Humidity;BMP_temperature;BMP_pressure;BME280_temperature;BME280_humidity;BME280_pressure;Samples;Min_cycle;Max_cycle;Signal;HPM_P1;HPM_P2
2021/12/26 00:02:07;;;;;;;22.77;14.63;;;;;;;8.34;100.00;99101.94;5027595;28;20031;-73
2021/12/26 00:04:33;;;;;;;25.10;14.65;;;;;;;8.33;100.00;99108.59;5062152;28;20125;-73
2021/12/26 00:06:59;;;;;;;24.85;14.13;;;;;;;8.36;100.00;99105.19;5027281;28;20020;-73
2021/12/26 00:09:24;;;;;;;26.85;14.98;;;;;;;8.36;100.00;99106.03;5080485;28;20123;-73
2021/12/26 00:11:50;;;;;;;28.85;16.50;;;;;;;8.36;100.00;99106.03;5066926;28;20032;-72
2021/12/26 00:14:15;;;;;;;25.05;14.63;;;;;;;8.36;100.00;99110.72;5075726;28;20531;-73
2021/12/26 00:16:42;;;;;;;30.13;17.45;;;;;;;8.37;100.00;99112.38;5063273;28;20070;-73
2021/12/26 00:19:08;;;;;;;31.33;17.52;;;;;;;8.36;100.00;99114.34;5056966;28;20063;-73
2021/12/26 00:21:33;;;;;;;25.05;15.43;;;;;;;8.38;100.00;99116.78;5043661;28;20177;-73
2021/12/26 00:23:59;;;;;;;25.73;15.98;;;;;;;8.36;100.00;99110.72;5046733;28;20024;-73
2021/12/26 00:26:25;;;;;;;27.38;16.20;;;;;;;8.37;100.00;99113.19;5059534;28;20115;-73
2021/12/26 00:28:50;;;;;;;24.83;15.90;;;;;;;8.36;100.00;99110.72;5040037;28;20472;-73
2021/12/26 00:31:16;;;;;;;28.70;16.50;;;;;;;8.37;100.00;99112.38;5019283;28;20106;-73
2021/12/26 00:33:42;;;;;;;28.45;17.00;;;;;;;8.39;100.00;99110.97;5041055;28;20060;-73
2021/12/26 00:36:08;;;;;;;28.08;15.07;;;;;;;8.38;100.00;99109.28;5032320;28;20024;-73
2021/12/26 00:38:33;;;;;;;22.60;15.60;;;;;;;8.37;100.00;99107.66;5043016;28;20028;-73
2021/12/26 00:40:59;;;;;;;25.05;15.48;;;;;;;8.37;100.00;99118.72;5026280;28;20044;-73
2021/12/26 00:43:26;;;;;;;27.92;14.70;;;;;;;8.37;100.00;99118.72;5048445;28;20041;-73
2021/12/26 00:45:51;;;;;;;24.80;15.55;;;;;;;8.38;100.00;99116.78;5015826;28;20033;-73
2021/12/26 00:48:17;;;;;;;27.30;15.95;;;;;;;8.38;100.00;99106.50;5042787;28;20032;-73
2021/12/26 00:50:42;;;;;;;33.28;17.55;;;;;;;8.40;100.00;99103.47;5025457;28;20062;-73
2021/12/26 00:53:08;;;;;;;30.63;16.80;;;;;;;8.40;100.00;99109.00;5049321;28;20056;-73
2021/12/26 00:55:34;;;;;;;30.73;16.13;;;;;;;8.41;100.00;99102.34;5057058;28;20048;-72
2021/12/26 00:57:59;;;;;;;25.88;15.98;;;;;;;8.41;100.00;99107.88;5044035;28;20029;-73
2021/12/26 01:00:30;;;;;;;31.17;17.13;;;;;;;8.40;100.00;99101.53;5057737;28;20047;-73
2021/12/26 01:02:56;;;;;;;26.65;16.33;;;;;;;8.40;100.00;99107.06;5039375;28;20473;-73
2021/12/26 01:05:23;;;;;;;26.90;16.00;;;;;;;8.42;100.00;99101.22;5032737;28;20028;-73
2021/12/26 01:10:17;;;;;;;27.38;16.80;;;;;;;8.42;100.00;99112.28;5052377;28;20499;-73
2021/12/26 01:12:42;;;;;;;26.23;16.10;;;;;;;8.40;100.00;99093.22;5012638;28;20035;-73
2021/12/26 01:15:10;;;;;;;27.13;16.58;;;;;;;8.43;100.00;99105.63;5076559;28;20029;-73
2021/12/26 01:17:39;;;;;;;29.50;15.77;;;;;;;8.43;100.00;99100.09;5036754;28;20064;-73
2021/12/26 01:20:08;;;;;;;27.55;16.48;;;;;;;8.43;100.00;99102.84;5029155;28;20043;-73
2021/12/26 01:22:34;;;;;;;26.58;15.82;;;;;;;8.42;100.00;99095.69;5026702;28;20029;-73
2021/12/26 01:24:59;;;;;;;28.65;17.13;;;;;;;8.44;100.00;99098.94;5053257;28;20037;-73
2021/12/26 01:27:25;;;;;;;27.90;17.05;;;;;;;8.43;100.00;99100.91;5017351;28;20044;-73
2021/12/26 01:29:51;;;;;;;28.77;18.20;;;;;;;8.43;100.00;99103.66;5031159;28;20032;-74
2021/12/26 01:32:17;;;;;;;26.52;15.65;;;;;;;8.43;100.00;99103.66;5061420;28;20147;-73
2021/12/26 01:34:43;;;;;;;28.15;15.40;;;;;;;8.43;100.00;99108.38;5068391;28;20098;-73
2021/12/26 01:37:09;;;;;;;25.35;15.77;;;;;;;8.43;100.00;99116.69;5065786;28;20038;-73
2021/12/26 01:39:34;;;;;;;23.70;15.93;;;;;;;8.43;100.00;99120.25;5081927;28;20036;-73
2021/12/26 01:42:02;;;;;;;24.33;15.35;;;;;;;8.44;100.00;99118.31;5064403;28;20031;-73
2021/12/26 01:44:29;;;;;;;23.75;14.93;;;;;;;8.44;100.00;99121.06;5064347;28;20029;-73
2021/12/26 01:46:54;;;;;;;23.65;14.88;;;;;;;8.44;100.00;99121.06;5065023;28;20028;-73
2021/12/26 01:49:22;;;;;;;24.35;15.18;;;;;;;8.43;100.00;99122.22;5055747;28;20033;-73
2021/12/26 01:51:50;;;;;;;25.30;15.52;;;;;;;8.43;100.00;99122.22;5057276;28;20035;-73
2021/12/26 01:54:27;;;;;;;23.30;15.25;;;;;;;8.44;100.00;99118.31;5048073;28;20036;-73
2021/12/26 01:56:53;;;;;;;21.88;14.70;;;;;;;8.44;100.00;99132.13;5079524;28;20101;-73
2021/12/26 01:59:18;;;;;;;26.20;15.23;;;;;;;8.44;100.00;99132.13;5082737;28;20032;-73
2021/12/26 02:01:44;;;;;;;22.67;14.95;;;;;;;8.45;100.00;99128.25;5050090;28;20028;-73
2021/12/26 02:04:09;;;;;;;23.65;14.38;;;;;;;8.44;100.00;99126.59;5074173;28;20040;-73
2021/12/26 02:06:35;;;;;;;22.17;14.65;;;;;;;8.44;100.00;99141.28;5066580;28;20476;-73
2021/12/26 02:09:00;;;;;;;24.40;15.43;;;;;;;8.45;100.00;99140.16;5065113;28;20117;-73
2021/12/26 02:11:26;;;;;;;23.20;15.43;;;;;;;8.47;100.00;99142.59;5060012;28;20028;-73
2021/12/26 02:13:51;;;;;;;24.42;14.93;;;;;;;8.46;100.00;99143.72;5039179;28;20031;-73
2021/12/26 02:16:17;;;;;;;21.95;14.90;;;;;;;8.45;100.00;99137.38;5066054;28;20043;-73
2021/12/26 02:18:43;;;;;;;25.23;14.27;;;;;;;8.47;100.00;99148.13;5063185;28;20039;-73
2021/12/26 02:24:00;;;;;;;21.48;14.10;;;;;;;8.47;100.00;99154.50;5066439;28;20032;-73
2021/12/26 02:29:10;;;;;;;21.65;14.13;;;;;;;8.48;100.00;99153.34;5054940;28;20039;-72
2021/12/26 02:31:35;;;;;;;22.10;13.27;;;;;;;8.49;100.00;99151.38;5063176;28;20477;-73
2021/12/26 02:34:00;;;;;;;20.60;13.55;;;;;;;8.50;100.00;99147.50;5082990;28;20540;-73
2021/12/26 02:36:26;;;;;;;22.98;13.18;;;;;;;8.50;100.00;99147.50;5045407;28;20062;-73
2021/12/26 02:38:51;;;;;;;20.17;13.38;;;;;;;8.50;100.00;99153.03;5049404;28;20039;-73
2021/12/26 02:41:17;;;;;;;21.52;12.30;;;;;;;8.51;100.00;99149.13;5077140;28;20028;-73
2021/12/26 02:43:42;;;;;;;19.02;12.73;;;;;;;8.49;100.00;99145.84;5063026;28;20032;-73
2021/12/26 02:46:08;;;;;;;18.02;12.20;;;;;;;8.50;100.00;99142.78;5045963;28;20393;-73
2021/12/26 02:48:34;;;;;;;19.60;12.65;;;;;;;8.50;100.00;99159.41;5065432;28;20404;-73
2021/12/26 02:51:00;;;;;;;18.02;11.20;;;;;;;8.50;100.00;99151.09;5029199;28;20024;-73
2021/12/26 02:53:26;;;;;;;17.15;10.15;;;;;;;8.50;100.00;99155.81;5043854;28;20039;-73
2021/12/26 02:55:52;;;;;;;17.02;10.57;;;;;;;8.49;100.00;99160.50;5041841;28;20016;-73
2021/12/26 02:58:18;;;;;;;17.05;10.57;;;;;;;8.50;100.00;99166.88;5081831;28;20081;-73
2021/12/26 03:00:46;;;;;;;16.70;10.32;;;;;;;8.50;100.00;99156.63;5027923;28;20028;-73
2021/12/26 03:03:11;;;;;;;14.88;9.60;;;;;;;8.51;100.00;99162.97;5037724;28;21047;-73
2021/12/26 03:05:39;;;;;;;16.02;9.85;;;;;;;8.51;100.00;99157.44;5042061;28;20028;-73
2021/12/26 03:08:05;;;;;;;16.70;9.75;;;;;;;8.52;100.00;99158.25;5064331;28;20039;-73
2021/12/26 03:10:31;;;;;;;16.35;9.65;;;;;;;8.51;100.00;99162.97;5045226;28;20036;-73
2021/12/26 03:12:59;;;;;;;18.98;9.15;;;;;;;8.49;100.00;99160.50;5062250;28;20535;-73
2021/12/26 03:15:25;;;;;;;20.98;9.55;;;;;;;8.51;100.00;99160.19;5046296;28;20059;-73
2021/12/26 03:17:51;;;;;;;21.42;9.13;;;;;;;8.51;100.00;99160.19;5050529;28;20025;-73
2021/12/26 03:20:19;;;;;;;15.43;8.18;;;;;;;8.52;100.00;99161.03;5046469;28;20519;-73
2021/12/26 03:22:45;;;;;;;15.63;8.68;;;;;;;8.51;100.00;99160.19;5063046;28;20453;-73
2021/12/26 03:25:15;;;;;;;21.83;9.23;;;;;;;8.52;100.00;99159.06;5044366;28;20071;-73
2021/12/26 03:27:41;;;;;;;16.77;8.38;;;;;;;8.53;100.00;99155.19;5046048;28;20039;-73
2021/12/26 03:30:08;;;;;;;17.77;8.13;;;;;;;8.51;100.00;99160.19;5060631;28;20047;-73
2021/12/26 03:32:33;;;;;;;19.10;7.90;;;;;;;8.53;100.00;99155.19;5061977;28;20112;-73
2021/12/26 03:34:59;;;;;;;20.05;8.45;;;;;;;8.52;100.00;99153.53;5048650;28;20070;-73
2021/12/26 03:37:24;;;;;;;24.27;8.68;;;;;;;8.50;100.00;99151.09;5044461;28;20020;-73
2021/12/26 03:39:50;;;;;;;16.90;7.47;;;;;;;8.53;100.00;99149.66;5046008;28;20046;-73
2021/12/26 03:42:15;;;;;;;19.33;7.68;;;;;;;8.51;100.00;99135.31;5059912;28;20032;-73
2021/12/26 03:44:41;;;;;;;19.20;7.55;;;;;;;8.54;100.00;99131.09;5043765;28;20029;-73
2021/12/26 03:47:06;;;;;;;16.63;7.32;;;;;;;8.54;100.00;99129.13;5065941;28;20032;-73
2021/12/26 03:49:32;;;;;;;20.20;7.60;;;;;;;8.54;100.00;99129.13;5056926;28;20047;-73
2021/12/26 03:51:58;;;;;;;18.80;7.85;;;;;;;8.52;100.00;99131.38;5052556;28;20035;-73
2021/12/26 03:54:23;;;;;;;18.23;7.32;;;;;;;8.54;100.00;99122.78;5063005;28;20044;-73
2021/12/26 03:56:49;;;;;;;14.75;6.95;;;;;;;8.53;100.00;99115.63;5064119;28;20077;-73
2021/12/26 03:59:14;;;;;;;15.32;6.47;;;;;;;8.52;100.00;99123.09;5045900;28;20024;-73
2021/12/26 04:01:40;;;;;;;21.77;6.65;;;;;;;8.52;100.00;99116.75;5043335;28;20520;-73
2021/12/26 04:04:05;;;;;;;23.52;7.18;;;;;;;8.51;100.00;99124.22;5025122;28;20066;-73
2021/12/26 04:06:30;;;;;;;19.98;7.07;;;;;;;8.51;100.00;99127.00;5066854;28;20032;-73
2021/12/26 04:08:56;;;;;;;20.42;7.50;;;;;;;8.50;100.00;99128.16;5061072;28;20059;-73
2021/12/26 04:11:22;;;;;;;17.17;6.43;;;;;;;8.49;100.00;99126.50;5059332;28;20027;-73
2021/12/26 04:13:48;;;;;;;16.38;6.60;;;;;;;8.48;100.00;99130.41;5063933;28;20032;-73
2021/12/26 04:16:13;;;;;;;16.85;6.88;;;;;;;8.47;100.00;99134.31;5049177;28;20051;-73
2021/12/26 04:18:39;;;;;;;15.52;6.40;;;;;;;8.47;100.00;99131.53;5058098;28;20043;-73
2021/12/26 04:21:05;;;;;;;18.13;6.60;;;;;;;8.46;100.00;99141.75;5063038;28;20036;-73
2021/12/26 04:23:34;;;;;;;14.82;6.22;;;;;;;8.44;100.00;99138.53;5056681;28;20147;-73
2021/12/26 04:25:59;;;;;;;16.27;6.32;;;;;;;8.44;100.00;99141.28;5056461;28;20055;-73
2021/12/26 04:28:25;;;;;;;23.17;6.70;;;;;;;8.45;100.00;99139.31;5061854;28;20389;-73
2021/12/26 04:30:51;;;;;;;20.80;7.60;;;;;;;8.44;100.00;99146.81;5055811;28;20062;-73
2021/12/26 04:33:16;;;;;;;23.48;7.38;;;;;;;8.46;100.00;99136.22;5069642;28;20032;-73
2021/12/26 04:35:41;;;;;;;28.83;7.47;;;;;;;8.44;100.00;99132.97;5077029;28;20020;-73
2021/12/26 04:38:07;;;;;;;24.77;6.80;;;;;;;8.45;100.00;99137.38;5046762;28;20055;-73
2021/12/26 04:40:32;;;;;;;18.52;6.43;;;;;;;8.45;100.00;99142.09;5032048;28;20036;-73
2021/12/26 04:42:58;;;;;;;23.75;6.65;;;;;;;8.45;100.00;99139.31;5060161;28;20020;-73
2021/12/26 04:45:25;;;;;;;24.90;6.80;;;;;;;8.45;100.00;99144.88;5047656;28;20469;-73
2021/12/26 04:47:51;;;;;;;28.83;7.82;;;;;;;8.45;100.00;99150.41;5032426;28;20469;-73
2021/12/26 04:50:21;;;;;;;21.25;6.45;;;;;;;8.44;100.00;99145.97;5065684;28;20105;-73
2021/12/26 04:52:47;;;;;;;22.67;6.55;;;;;;;8.44;100.00;99140.44;5035754;28;20035;-73
2021/12/26 04:55:14;;;;;;;16.48;6.20;;;;;;;8.44;100.00;99141.28;5033839;28;20032;-73
2021/12/26 04:57:39;;;;;;;19.15;6.43;;;;;;;8.44;100.00;99140.44;5063606;28;20020;-73
2021/12/26 05:00:07;;;;;;;22.77;6.70;;;;;;;8.46;100.00;99129.88;5058316;28;20370;-72
2021/12/26 05:02:35;;;;;;;23.52;6.80;;;;;;;8.45;100.00;99125.50;5077294;28;20036;-73
2021/12/26 05:05:01;;;;;;;20.27;5.88;;;;;;;8.46;100.00;99143.72;5065224;28;20051;-72
2021/12/26 05:07:27;;;;;;;24.30;5.63;;;;;;;8.45;100.00;99133.78;5047187;28;20422;-73
2021/12/26 05:09:52;;;;;;;18.92;5.63;;;;;;;8.46;100.00;99132.66;5049040;28;20028;-73
2021/12/26 05:12:18;;;;;;;18.98;5.47;;;;;;;8.44;100.00;99141.28;5064208;28;20039;-72
2021/12/26 05:14:43;;;;;;;20.08;5.22;;;;;;;8.43;100.00;99152.66;5046988;28;20024;-73
2021/12/26 05:17:09;;;;;;;16.88;5.82;;;;;;;8.42;100.00;99156.56;5079614;28;20021;-73
2021/12/26 05:19:34;;;;;;;18.20;5.57;;;;;;;8.41;100.00;99154.91;5081147;28;20039;-73
2021/12/26 05:22:00;;;;;;;21.95;5.78;;;;;;;8.40;100.00;99156.84;5047300;28;20043;-73
2021/12/26 05:24:25;;;;;;;25.63;5.68;;;;;;;8.39;100.00;99158.00;5063730;28;20036;-72
2021/12/26 05:26:50;;;;;;;19.90;5.00;;;;;;;8.40;100.00;99156.84;5050511;28;20031;-73
2021/12/26 05:29:16;;;;;;;19.67;5.18;;;;;;;8.39;100.00;99154.41;5047536;28;20020;-72
2021/12/26 05:31:41;;;;;;;22.45;5.50;;;;;;;8.37;100.00;99149.16;5031128;28;20048;-73
2021/12/26 05:34:07;;;;;;;27.42;5.38;;;;;;;8.36;100.00;99155.81;5057803;28;20029;-73
2021/12/26 05:36:32;;;;;;;20.20;5.05;;;;;;;8.36;100.00;99161.34;5044963;28;20029;-73
2021/12/26 05:38:58;;;;;;;18.92;5.45;;;;;;;8.36;100.00;99166.91;5028518;28;20693;-73
2021/12/26 05:41:23;;;;;;;17.35;4.85;;;;;;;8.36;100.00;99166.06;5028708;28;21404;-73
2021/12/26 05:43:49;;;;;;;18.83;4.97;;;;;;;8.36;100.00;99168.81;5014924;28;20039;-73
2021/12/26 05:46:14;;;;;;;15.13;4.68;;;;;;;8.35;100.00;99154.16;5024480;28;20025;-73
2021/12/26 05:48:40;;;;;;;15.57;4.07;;;;;;;8.36;100.00;99166.06;5043578;28;20032;-73
2021/12/26 05:51:05;;;;;;;18.05;5.38;;;;;;;8.35;100.00;99162.47;5046083;28;20083;-73
2021/12/26 05:53:31;;;;;;;20.55;5.50;;;;;;;8.36;100.00;99163.28;5029228;28;20035;-73
2021/12/26 05:55:56;;;;;;;16.65;4.53;;;;;;;8.34;100.00;99160.03;5044230;28;20502;-73
2021/12/26 05:58:22;;;;;;;25.05;5.10;;;;;;;8.34;100.00;99158.09;5015949;28;20029;-73
2021/12/26 06:00:47;;;;;;;18.85;4.88;;;;;;;8.34;100.00;99163.63;5045999;28;20033;-72
2021/12/26 06:03:13;;;;;;;17.40;4.78;;;;;;;8.34;100.00;99168.34;5006840;28;20021;-73
2021/12/26 06:05:38;;;;;;;16.67;4.63;;;;;;;8.35;100.00;99178.25;5045717;28;20028;-73
2021/12/26 06:08:04;;;;;;;15.68;4.95;;;;;;;8.34;100.00;99176.63;5029104;28;20055;-73
2021/12/26 06:10:29;;;;;;;16.63;4.38;;;;;;;8.34;100.00;99180.22;5007645;28;20398;-73
2021/12/26 06:12:55;;;;;;;21.17;4.82;;;;;;;8.33;100.00;99173.06;5036570;28;20033;-73
2021/12/26 06:15:20;;;;;;;22.20;5.15;;;;;;;8.33;100.00;99166.69;5025976;28;20028;-73
2021/12/26 06:17:46;;;;;;;23.85;5.35;;;;;;;8.34;100.00;99168.34;5045680;28;20025;-73
2021/12/26 06:20:14;;;;;;;19.27;5.13;;;;;;;8.35;100.00;99159.72;5022600;28;20028;-73
2021/12/26 06:22:48;;;;;;;20.58;4.90;;;;;;;8.33;100.00;99164.75;5034926;28;20029;-73
2021/12/26 06:25:14;;;;;;;16.77;4.50;;;;;;;8.33;100.00;99161.16;5030013;28;20092;-73
2021/12/26 06:27:39;;;;;;;24.35;5.20;;;;;;;8.34;100.00;99162.81;5023517;28;20439;-73
2021/12/26 06:30:06;;;;;;;16.45;4.78;;;;;;;8.33;100.00;99156.47;5021363;28;20060;-73
2021/12/26 06:32:31;;;;;;;15.32;4.50;;;;;;;8.34;100.00;99160.03;5051612;28;20053;-73
2021/12/26 06:34:57;;;;;;;19.90;5.28;;;;;;;8.34;100.00;99160.84;5068054;28;20091;-73
2021/12/26 06:37:22;;;;;;;23.85;5.30;;;;;;;8.34;100.00;99158.09;5060132;28;20036;-73
2021/12/26 06:39:48;;;;;;;20.10;4.57;;;;;;;8.34;100.00;99165.56;5064851;28;20031;-73
2021/12/26 06:42:13;;;;;;;16.77;5.03;;;;;;;8.33;100.00;99159.22;5066336;28;20024;-73
2021/12/26 06:44:39;;;;;;;17.27;4.82;;;;;;;8.36;100.00;99160.53;5047098;28;20034;-73
2021/12/26 06:47:05;;;;;;;19.88;4.95;;;;;;;8.32;100.00;99152.03;5053755;28;20032;-73
2021/12/26 06:49:31;;;;;;;20.13;4.82;;;;;;;8.36;100.00;99160.53;5056792;28;20107;-73
2021/12/26 06:51:56;;;;;;;27.38;5.28;;;;;;;8.35;100.00;99162.47;5031348;28;20134;-73
2021/12/26 06:54:23;;;;;;;22.58;5.15;;;;;;;8.34;100.00;99171.91;5045978;28;20055;-73
2021/12/26 06:56:49;;;;;;;21.90;5.22;;;;;;;8.34;100.00;99173.88;5030932;28;20016;-72
2021/12/26 06:59:14;;;;;;;18.95;5.32;;;;;;;8.33;100.00;99181.34;5063663;28;20078;-73
2021/12/26 07:01:40;;;;;;;24.58;4.72;;;;;;;8.31;100.00;99180.84;5047488;28;20484;-73
2021/12/26 07:04:05;;;;;;;21.42;4.45;;;;;;;8.32;100.00;99176.13;5027651;28;20023;-73
2021/12/26 07:06:31;;;;;;;13.02;4.53;;;;;;;8.29;100.00;99164.53;5062407;28;20032;-73
2021/12/26 07:08:56;;;;;;;18.35;4.68;;;;;;;8.28;100.00;99160.16;5060890;28;20469;-73
2021/12/26 07:11:22;;;;;;;14.85;4.70;;;;;;;8.28;100.00;99165.69;5061435;28;20476;-73
2021/12/26 07:13:47;;;;;;;16.55;4.15;;;;;;;8.27;100.00;99163.22;5065021;28;20111;-73
2021/12/26 07:16:13;;;;;;;16.42;4.38;;;;;;;8.24;100.00;99164.66;5045115;28;20023;-73
2021/12/26 07:18:38;;;;;;;19.55;4.55;;;;;;;8.23;100.00;99165.78;5061953;28;20090;-73
2021/12/26 07:21:03;;;;;;;17.77;4.55;;;;;;;8.23;100.00;99162.22;5053925;28;20078;-73
2021/12/26 07:23:29;;;;;;;18.40;4.10;;;;;;;8.21;100.00;99173.56;5045640;28;20024;-73
2021/12/26 07:25:54;;;;;;;21.92;4.65;;;;;;;8.20;100.00;99171.94;5030998;28;20032;-72
2021/12/26 07:28:20;;;;;;;17.75;3.97;;;;;;;8.18;100.00;99193.56;5057614;28;20056;-73
2021/12/26 07:30:45;;;;;;;14.38;4.05;;;;;;;8.16;100.00;99190.31;5048164;28;20052;-73
2021/12/26 07:33:11;;;;;;;19.27;4.75;;;;;;;8.13;100.00;99192.84;5029413;28;20036;-73
2021/12/26 07:35:36;;;;;;;17.45;4.38;;;;;;;8.13;100.00;99201.97;5021248;28;20048;-73
2021/12/26 07:38:02;;;;;;;12.38;3.88;;;;;;;8.12;100.00;99200.34;5020679;28;20035;-73
2021/12/26 07:40:27;;;;;;;17.42;3.78;;;;;;;8.09;100.00;99205.66;5028171;28;20031;-73
2021/12/26 07:42:53;;;;;;;15.25;3.75;;;;;;;8.07;100.00;99192.97;5032193;28;20055;-73
2021/12/26 07:45:19;;;;;;;18.88;3.95;;;;;;;8.08;100.00;99196.56;5008787;28;20028;-72
2021/12/26 07:47:44;;;;;;;16.00;3.70;;;;;;;8.04;100.00;99196.34;5014026;28;20025;-73
2021/12/26 07:50:10;;;;;;;20.70;3.85;;;;;;;8.02;100.00;99197.78;5045699;28;20032;-73
2021/12/26 07:52:40;;;;;;;16.98;3.38;;;;;;;8.01;100.00;99209.97;5012487;28;20507;-73
2021/12/26 07:55:06;;;;;;;16.17;3.63;;;;;;;7.99;100.00;99213.03;5046858;28;20028;-73
2021/12/26 07:57:31;;;;;;;16.65;3.45;;;;;;;7.98;100.00;99205.06;5042622;28;20028;-73
2021/12/26 07:59:57;;;;;;;16.67;3.78;;;;;;;7.97;100.00;99208.97;5009099;28;20028;-73
2021/12/26 08:02:22;;;;;;;13.05;3.55;;;;;;;7.95;100.00;99200.97;5039594;28;20124;-73
2021/12/26 08:04:48;;;;;;;16.45;3.42;;;;;;;7.93;100.00;99196.88;5006161;28;20021;-73
2021/12/26 08:07:14;;;;;;;18.13;3.60;;;;;;;7.92;100.00;99206.31;5026097;28;20611;-73
2021/12/26 08:09:39;;;;;;;13.40;3.40;;;;;;;7.90;100.00;99200.25;5031741;28;20036;-72
2021/12/26 08:12:05;;;;;;;15.50;2.90;;;;;;;7.88;100.00;99210.78;5012111;28;20032;-73
2021/12/26 08:14:31;;;;;;;18.92;3.58;;;;;;;7.86;100.00;99213.06;5044851;28;20025;-73
2021/12/26 08:16:56;;;;;;;18.08;3.22;;;;;;;7.86;100.00;99207.53;5012375;28;20028;-73
2021/12/26 08:19:22;;;;;;;16.27;3.63;;;;;;;7.84;100.00;99208.66;5045999;28;20033;-73
2021/12/26 08:21:51;;;;;;;18.65;3.28;;;;;;;7.83;100.00;99209.78;5033385;28;20087;-73
2021/12/26 08:24:17;;;;;;;10.77;3.17;;;;;;;7.81;100.00;99217.56;5027618;28;20469;-73
2021/12/26 08:26:42;;;;;;;20.15;3.33;;;;;;;7.80;100.00;99218.69;5030373;28;20028;-73
2021/12/26 08:29:07;;;;;;;11.75;2.63;;;;;;;7.79;100.00;99227.28;5014463;28;20041;-73
2021/12/26 08:31:33;;;;;;;14.25;3.30;;;;;;;7.78;100.00;99232.00;5061322;28;20043;-73
2021/12/26 08:33:59;;;;;;;18.13;3.70;;;;;;;7.77;100.00;99233.13;5066648;28;20059;-73
2021/12/26 08:36:24;;;;;;;15.93;3.67;;;;;;;7.77;100.00;99238.66;5051300;28;20020;-73
2021/12/26 08:38:50;;;;;;;16.73;4.03;;;;;;;7.79;100.00;99235.56;5063912;28;20023;-73
2021/12/26 08:41:15;;;;;;;14.13;3.60;;;;;;;7.78;100.00;99251.34;5066581;28;20031;-73
2021/12/26 08:43:43;;;;;;;21.73;3.95;;;;;;;7.80;100.00;99254.63;5040342;28;20045;-72
2021/12/26 08:46:12;;;;;;;18.45;4.10;;;;;;;7.82;100.00;99254.31;5043646;28;20089;-73
2021/12/26 08:48:37;;;;;;;18.08;3.40;;;;;;;7.83;100.00;99242.97;5035996;28;20028;-73
2021/12/26 08:51:03;;;;;;;22.80;4.65;;;;;;;7.85;100.00;99245.41;5051212;28;20033;-73
2021/12/26 08:53:28;;;;;;;23.17;3.95;;;;;;;7.88;100.00;99243.97;5064399;28;20143;-73
2021/12/26 08:55:54;;;;;;;19.77;3.45;;;;;;;7.88;100.00;99249.50;5065649;28;20016;-72
2021/12/26 08:58:19;;;;;;;15.85;3.42;;;;;;;7.92;100.00;99247.78;5066486;28;20058;-73
2021/12/26 09:00:45;;;;;;;17.80;3.58;;;;;;;7.94;100.00;99254.63;5063584;28;20028;-73
2021/12/26 09:03:10;;;;;;;21.48;4.60;;;;;;;7.95;100.00;99258.22;5080262;28;20070;-73
2021/12/26 09:05:36;;;;;;;21.17;4.30;;;;;;;7.97;100.00;99264.25;5049108;28;20504;-73
2021/12/26 09:08:02;;;;;;;21.95;3.90;;;;;;;8.00;100.00;99269.19;5050232;28;20027;-73
2021/12/26 09:10:28;;;;;;;18.80;4.00;;;;;;;8.03;100.00;99263.03;5051276;28;20036;-73
2021/12/26 09:12:54;;;;;;;16.45;3.97;;;;;;;8.06;100.00;99262.41;5051524;28;20074;-73
2021/12/26 09:15:19;;;;;;;22.60;3.75;;;;;;;8.10;100.00;99277.25;5046249;28;20047;-73
2021/12/26 09:17:45;;;;;;;19.73;4.05;;;;;;;8.13;100.00;99278.56;5043824;28;20389;-73
2021/12/26 09:20:10;;;;;;;22.17;4.13;;;;;;;8.16;100.00;99277.97;5044843;28;20035;-73
2021/12/26 09:22:36;;;;;;;23.23;3.75;;;;;;;8.18;100.00;99272.94;5040275;28;20035;-73
2021/12/26 09:25:03;;;;;;;23.33;4.40;;;;;;;8.21;100.00;99278.66;5052466;28;20036;-73
2021/12/26 09:27:28;;;;;;;22.48;4.10;;;;;;;8.23;100.00;99281.97;5064295;28;20481;-72
2021/12/26 09:29:54;;;;;;;22.20;3.55;;;;;;;8.26;100.00;99284.09;5072976;28;20051;-73
2021/12/26 09:32:19;;;;;;;24.50;3.70;;;;;;;8.26;100.00;99269.47;5053345;28;20035;-73
2021/12/26 09:34:45;;;;;;;16.65;3.42;;;;;;;8.31;100.00;99285.13;5061699;28;20028;-73
2021/12/26 09:37:10;;;;;;;18.15;3.83;;;;;;;8.32;100.00;99284.00;5065115;28;20031;-73
2021/12/26 09:39:36;;;;;;;18.15;3.97;;;;;;;8.32;100.00;99275.69;5079854;28;20417;-73
2021/12/26 09:42:02;;;;;;;27.23;4.18;;;;;;;8.37;100.00;99286.66;5033432;28;20038;-73
2021/12/26 09:44:28;;;;;;;24.40;3.70;;;;;;;8.35;100.00;99278.66;5064216;28;20040;-73
2021/12/26 09:46:53;;;;;;;15.32;3.42;;;;;;;8.37;100.00;99276.41;5033377;28;20037;-73
2021/12/26 09:49:19;;;;;;;19.45;3.58;;;;;;;8.40;100.00;99280.53;5045988;28;20029;-73
2021/12/26 09:51:44;;;;;;;17.77;3.53;;;;;;;8.40;100.00;99283.31;5040439;28;20028;-73
2021/12/26 09:54:10;;;;;;;14.52;3.55;;;;;;;8.42;100.00;99278.28;5031090;28;20473;-73
2021/12/26 09:56:36;;;;;;;17.85;3.78;;;;;;;8.43;100.00;99283.50;5044248;28;20155;-73
2021/12/26 09:59:05;;;;;;;15.80;3.22;;;;;;;8.46;100.00;99279.28;5055935;28;20036;-73
2021/12/26 10:01:39;;;;;;;25.67;4.55;;;;;;;8.46;100.00;99287.59;5070308;28;20028;-73
2021/12/26 10:04:17;;;;;;;23.67;3.95;;;;;;;8.47;100.00;99289.25;5067296;28;20063;-73
2021/12/26 10:06:42;;;;;;;18.35;3.75;;;;;;;8.48;100.00;99290.88;5099102;28;20028;-73
2021/12/26 10:09:08;;;;;;;17.63;3.38;;;;;;;8.48;100.00;99301.94;5067758;28;20515;-73
2021/12/26 10:11:40;;;;;;;23.30;4.28;;;;;;;8.49;100.00;99298.03;5064724;28;20115;-73
2021/12/26 10:14:07;;;;;;;20.55;4.28;;;;;;;8.49;100.00;99290.56;5048107;28;20062;-73
2021/12/26 10:16:38;;;;;;;20.70;3.50;;;;;;;8.52;100.00;99286.34;5058279;28;20154;-73
2021/12/26 10:19:04;;;;;;;24.65;4.22;;;;;;;8.54;100.00;99295.16;5041679;28;20435;-73
2021/12/26 10:21:35;;;;;;;26.60;4.72;;;;;;;8.56;100.00;99287.38;5048691;28;20024;-72
2021/12/26 10:24:06;;;;;;;20.75;3.50;;;;;;;8.58;100.00;99289.81;5051515;28;20036;-73
2021/12/26 10:26:35;;;;;;;20.50;4.10;;;;;;;8.59;100.00;99285.94;5065221;28;20030;-73
2021/12/26 10:29:06;;;;;;;20.40;4.03;;;;;;;8.62;100.00;99285.31;5050752;28;20044;-73
2021/12/26 10:31:32;;;;;;;25.75;4.07;;;;;;;8.63;100.00;99286.94;5084234;28;20056;-74
2021/12/26 10:33:57;;;;;;;21.75;4.35;;;;;;;8.65;100.00;99284.69;5026615;28;20090;-74
2021/12/26 10:36:23;;;;;;;26.88;5.00;;;;;;;8.67;100.00;99276.91;5051161;28;20020;-75
2021/12/26 10:39:17;;;;;;;26.13;5.28;;;;;;;8.71;100.00;99284.25;5021495;28;20112;-71
2021/12/26 10:41:44;;;;;;;20.85;4.95;;;;;;;8.74;100.00;99282.81;5058990;28;20047;-73
2021/12/26 10:44:23;;;;;;;24.92;4.22;;;;;;;8.76;100.00;99263.97;5055207;28;20066;-73
2021/12/26 10:46:50;;;;;;;19.08;4.45;;;;;;;8.79;100.00;99268.06;5046287;28;20028;-73
2021/12/26 10:49:26;;;;;;;16.40;4.35;;;;;;;8.79;100.00;99263.31;5061405;28;20031;-71
2021/12/26 10:51:51;;;;;;;21.77;5.60;;;;;;;8.82;100.00;99265.47;5066686;28;20029;-71
2021/12/26 10:54:19;;;;;;;18.30;4.07;;;;;;;8.84;100.00;99262.41;5077843;28;20090;-71
2021/12/26 10:57:06;;;;;;;21.50;4.35;;;;;;;8.88;100.00;99255.09;5047712;28;20081;-81
2021/12/26 10:59:32;;;;;;;22.27;4.43;;;;;;;8.87;100.00;99264.53;5050711;28;20059;-74
2021/12/26 11:01:57;;;;;;;18.00;4.25;;;;;;;8.88;100.00;99250.38;5060819;28;20036;-74
2021/12/26 11:04:24;;;;;;;18.90;4.15;;;;;;;8.90;100.00;99252.84;5095856;28;20036;-73
2021/12/26 11:07:17;;;;;;;19.67;4.15;;;;;;;8.90;100.00;99248.13;5095096;28;20055;-73
2021/12/26 11:09:43;;;;;;;12.18;4.28;;;;;;;8.91;100.00;99249.78;5070250;28;20040;-73
2021/12/26 11:12:09;;;;;;;13.55;4.20;;;;;;;8.93;100.00;99241.13;5094737;28;20397;-73
2021/12/26 11:14:59;;;;;;;16.70;4.57;;;;;;;8.93;100.00;99246.66;5063648;28;20431;-73
2021/12/26 11:17:31;;;;;;;15.57;3.67;;;;;;;8.96;100.00;99248.81;5058366;28;20146;-73
2021/12/26 11:19:57;;;;;;;;;;;;;;;8.98;100.00;99238.25;5097982;28;20150;-73
2021/12/26 11:22:23;;;;;;;11.63;3.15;;;;;;;8.98;100.00;99229.13;5094957;28;19953;-73
2021/12/26 11:24:49;;;;;;;12.68;3.55;;;;;;;9.00;100.00;99224.06;5076129;28;20036;-73
2021/12/26 11:27:15;;;;;;;9.02;3.72;;;;;;;9.01;100.00;99226.53;5079999;28;20032;-73
2021/12/26 11:29:40;;;;;;;12.35;3.35;;;;;;;9.06;100.00;99220.06;5087676;28;20040;-73